Portada
METAR-TAF:

METAR-TAF

Aeroports :

Tawau, Malàisia

latitud: 04-16N, longitud: 117-53E, altitud: 18 m

Observació

L'informe es va fer fa 1 hora i 12 minuts, a les 23:00 UTC
Vent 2 kt amb direcció variable
Temperatura 24°C
Humitat 100%
Pressió 1014 hPa
Visibilitat 10 km o més
Escasses núvols a una alçada de 1700 ft
Núvols disperses a una alçada de 14000 ft
Cel ennuvolat a una alçada de 30000 ft

METAR: WBKW 202300Z VRB02KT 9999 FEW017 SCT140 BKN300 24/24 Q1014

Hora: 08:12 (00:12 UTC)

Pronòstic

L'informe es va fer fa 1 hora i 12 minuts, a les 23:00 UTC
Pronòstic vàlid del 21 a les 00 UTC al 22 a les 00 UTC
Vent 10 kt del Est
Visibilitat 10 km o més
Escasses núvols a una alçada de 1700 ft

TAF: WBKW 202300Z 2100/2200 10010KT 9999 FEW017

Observacions i pronòstics meteorològics de més de 4000 aeroports (METAR i TAF).

Les estacions disponibles són els punts grocs i vermells al mapa.

Posi el ratolí al punt desitjat per veure el nom de l'estació.

Feu clic per veure les observacions i els pronòstics meteorològics.

Per canviar el mapa: feu clic els botons verds amb una creu de color negre per apropar; al botó verd amb un guió per allunyar la imatge; o en les fletxes verdes per a mapes adjacents.


METAR-TAF: